High Island, Texas
Current Conditions -  °F | °C
As of 4:15 PM on Monday 20 Oct 2014 (Local Time) from KXIH Reporting Station
Clear Clear  
Wind Chill: 77°   Ceiling: Unl
Heat Index: 79°   Visibility: 10mi
Dew Point: 66°   Wind: 14mph
Humidity: 69%   Direction: 80°E
Pressure: 29.98"   Gusts: NA
Location:  29.57°N, 94.39°W
Report Text: KXIH 202115Z AUTO 08012KT 10SM CLR 25/19 A2998 RMK A01
Loading
Personal Weather Stations






























Interactive Weather Map
Tropical Storm Tracking
New forecast layout! Learn more

10-Day Weather Forecast

Advertisements
Track Severe Weather on mobile